Altair — 9LC2000 — position and weather

sailwx.info

Track history (hours):
 
Tides and Currents Weather Stations Pressure Air Temp Water Temp Dewpoint Dewpoint Depression Visibility Wind Speed Wind Dir Waves Ship Positions

Altair

Last reported at 2017-Nov-10 10:32 UTC. Time now 2017-Nov-18 17:23 UTC.
Position N 37°52' E 015°53'.
Warning: this ship's position is 8 days out of date.

Length 108 m; draft 2.7 m.

Type: Cargo ship. MMSI: 667021000.

Date/timePositionNaut miles runAvg speedWind from/ knotsBaromVisibWave heightAir tempDewpointWater temp
2017-Nov-10 10:32N 37°52' E 015°53'4 8.4
2017-Nov-10 10:01N 37°52' E 015°48'0 8.4
2017-Nov-10 10:00N 37°52' E 015°48'4 8.3
2017-Nov-10 09:30N 37°53' E 015°42'4 7.6
2017-Nov-10 09:00N 37°54' E 015°38'4 8.1
2017-Nov-10 08:30N 37°58' E 015°35'4 8.5
2017-Nov-10 08:00N 38°02' E 015°34'4 8.4
2017-Nov-10 07:30N 38°06' E 015°34'4 7.7
2017-Nov-10 07:00N 38°10' E 015°35'4 8.1
2017-Nov-10 06:31N 38°14' E 015°36'4 7.0
2017-Nov-10 06:00N 38°16' E 015°40'4 7.0
2017-Nov-10 05:29N 38°19' E 015°38'4 7.6
2017-Nov-10 05:00N 38°21' E 015°34'4 8.0
2017-Nov-10 04:30N 38°21' E 015°29'4 8.9
2017-Nov-10 04:00N 38°20' E 015°23'4 9.0
2017-Nov-10 03:30N 38°20' E 015°17'4 8.9
2017-Nov-10 03:00N 38°19' E 015°12'4 8.7
2017-Nov-10 02:30N 38°19' E 015°06'4 8.3
2017-Nov-10 02:00N 38°18' E 015°01'4 8.3
2017-Nov-10 01:30N 38°19' E 014°56'6 8.4
2017-Nov-10 00:48N 38°20' E 014°48'3 8.2
2017-Nov-10 00:24N 38°20' E 014°44'  
Track history (hours):
 
Tides and Currents Weather Stations Pressure Air Temp Water Temp Dewpoint Dewpoint Depression Visibility Wind Speed Wind Dir Waves Ship Positions

Altair

Last reported at 2017-Nov-10 10:32 UTC. Time now 2017-Nov-18 17:23 UTC.
Position N 37°52' E 015°53'.
Warning: this ship's position is 8 days out of date.

Length 108 m; draft 2.7 m.

Type: Cargo ship. MMSI: 667021000.

Date/timePositionNaut miles runAvg speedWind from/ knotsBaromVisibWave heightAir tempDewpointWater temp
2017-Nov-10 10:32N 37°52' E 015°53'4 8.4
2017-Nov-10 10:01N 37°52' E 015°48'0 8.4
2017-Nov-10 10:00N 37°52' E 015°48'4 8.3
2017-Nov-10 09:30N 37°53' E 015°42'4 7.6
2017-Nov-10 09:00N 37°54' E 015°38'4 8.1
2017-Nov-10 08:30N 37°58' E 015°35'4 8.5
2017-Nov-10 08:00N 38°02' E 015°34'4 8.4
2017-Nov-10 07:30N 38°06' E 015°34'4 7.7
2017-Nov-10 07:00N 38°10' E 015°35'4 8.1
2017-Nov-10 06:31N 38°14' E 015°36'4 7.0
2017-Nov-10 06:00N 38°16' E 015°40'4 7.0
2017-Nov-10 05:29N 38°19' E 015°38'4 7.6
2017-Nov-10 05:00N 38°21' E 015°34'4 8.0
2017-Nov-10 04:30N 38°21' E 015°29'4 8.9
2017-Nov-10 04:00N 38°20' E 015°23'4 9.0
2017-Nov-10 03:30N 38°20' E 015°17'4 8.9
2017-Nov-10 03:00N 38°19' E 015°12'4 8.7
2017-Nov-10 02:30N 38°19' E 015°06'4 8.3
2017-Nov-10 02:00N 38°18' E 015°01'4 8.3
2017-Nov-10 01:30N 38°19' E 014°56'6 8.4
2017-Nov-10 00:48N 38°20' E 014°48'3 8.2
2017-Nov-10 00:24N 38°20' E 014°44'  

Dump ship's entire track history